Time;durP1;ratioP1;P1;durP2;ratioP2;P2;SDS_P1;SDS_P2;PMS_P1;PMS_P2;Temp;Humidity;BMP_temperature;BMP_pressure;BME280_temperature;BME280_humidity;BME280_pressure;Samples;Min_cycle;Max_cycle;Signal;HPM_P1;HPM_P2
2020/12/14 05:01:03;;;;;;;95.13;29.77;;;4.40;99.90;;;;;;5594625;24;181714;31
2020/12/14 05:03:29;;;;;;;110.90;29.27;;;4.40;99.90;;;;;;4643224;29;178437;-75
2020/12/14 05:05:56;;;;;;;128.90;30.80;;;4.50;99.90;;;;;;4647136;29;181025;-75
2020/12/14 05:08:26;;;;;;;122.50;30.47;;;4.40;99.90;;;;;;4646785;29;178656;-75
2020/12/14 05:10:53;;;;;;;165.70;33.03;;;4.40;99.90;;;;;;4647957;29;179648;-74
2020/12/14 05:13:24;;;;;;;82.17;26.67;;;4.40;99.90;;;;;;4648048;29;178324;-74
2020/12/14 05:15:50;;;;;;;179.53;33.50;;;4.50;99.90;;;;;;4651054;29;176410;-74
2020/12/14 05:18:22;;;;;;;127.50;32.63;;;4.50;99.90;;;;;;4650149;29;179418;-74
2020/12/14 05:21:02;;;;;;;107.00;27.40;;;4.30;99.90;;;;;;4648367;29;178716;-74
2020/12/14 05:23:30;;;;;;;240.60;40.30;;;4.30;99.90;;;;;;4642040;29;181352;-75
2020/12/14 05:26:11;;;;;;;213.87;37.57;;;4.30;99.90;;;;;;4649721;29;179281;-75
2020/12/14 05:28:38;;;;;;;139.60;31.87;;;4.30;99.90;;;;;;4647880;29;179196;-75
2020/12/14 05:31:04;;;;;;;181.07;34.47;;;4.20;99.90;;;;;;4649155;29;178044;-75
2020/12/14 05:33:32;;;;;;;163.57;31.00;;;4.20;99.90;;;;;;4648027;29;179229;-75
2020/12/14 05:35:58;;;;;;;109.60;29.97;;;4.30;99.90;;;;;;4649082;29;178247;-75
2020/12/14 05:38:30;;;;;;;158.67;33.70;;;4.60;99.90;;;;;;4649641;29;178781;-75
2020/12/14 05:40:58;;;;;;;148.30;33.77;;;4.70;99.90;;;;;;4650346;29;177873;-75
2020/12/14 05:43:32;;;;;;;150.80;32.03;;;4.40;99.90;;;;;;4662171;29;178762;-75
2020/12/14 05:46:15;;;;;;;159.97;33.07;;;4.70;99.90;;;;;;4649660;29;177998;-75
2020/12/14 05:48:42;;;;;;;115.27;29.03;;;4.50;99.90;;;;;;4647461;29;184380;-75
2020/12/14 05:51:09;;;;;;;125.40;29.53;;;4.50;99.90;;;;;;4648630;29;181696;-75
2020/12/14 05:53:37;;;;;;;131.47;31.37;;;4.50;99.90;;;;;;4649136;29;178595;-75
2020/12/14 05:56:05;;;;;;;112.40;29.10;;;4.30;99.90;;;;;;4649640;29;177817;-75
2020/12/14 05:58:32;;;;;;;113.93;30.50;;;4.70;99.90;;;;;;4647963;29;179393;-75
2020/12/14 06:01:01;;;;;;;100.70;28.80;;;4.50;99.90;;;;;;4648082;29;178354;-75
2020/12/14 06:03:28;;;;;;;118.27;29.33;;;4.60;99.90;;;;;;4648363;29;178314;-75
2020/12/14 06:06:00;;;;;;;100.27;28.27;;;4.60;99.90;;;;;;4649266;29;176707;-75
2020/12/14 06:08:44;;;;;;;93.13;28.97;;;4.60;99.90;;;;;;4644333;29;179765;-75
2020/12/14 06:11:15;;;;;;;112.73;28.20;;;4.80;99.90;;;;;;4646713;29;179946;-75
2020/12/14 06:13:53;;;;;;;84.40;27.43;;;4.80;99.90;;;;;;4645767;29;181326;-75
2020/12/14 06:16:21;;;;;;;87.73;26.33;;;4.60;99.90;;;;;;4647469;29;178115;-74
2020/12/14 06:18:48;;;;;;;110.37;30.57;;;4.80;99.90;;;;;;4648236;29;179389;-75
2020/12/14 06:21:47;;;;;;;100.07;28.30;;;4.80;99.90;;;;;;4647741;29;178271;-75
2020/12/14 06:24:20;;;;;;;127.80;28.13;;;4.80;99.90;;;;;;4638735;29;178764;-75
2020/12/14 06:26:47;;;;;;;92.13;26.87;;;4.80;99.90;;;;;;4652854;29;178903;-75
2020/12/14 06:29:34;;;;;;;78.77;25.97;;;4.80;99.90;;;;;;4645273;29;181580;-75
2020/12/14 06:32:01;;;;;;;88.50;27.57;;;4.80;99.90;;;;;;4644736;29;177805;-74
2020/12/14 06:34:33;;;;;;;83.83;26.00;;;4.90;99.90;;;;;;4646048;29;178168;-74
2020/12/14 06:37:01;;;;;;;71.20;25.60;;;4.90;99.90;;;;;;4645876;29;180360;-75
2020/12/14 06:39:34;;;;;;;97.47;27.63;;;4.90;99.90;;;;;;4643305;29;184203;-74
2020/12/14 06:42:07;;;;;;;124.13;29.97;;;4.90;99.90;;;;;;4644174;29;181910;-75
2020/12/14 06:44:34;;;;;;;75.70;25.60;;;;;;;;;;4645690;29;180008;-74
2020/12/14 06:47:13;;;;;;;77.10;26.37;;;4.90;99.90;;;;;;4646059;29;178630;-74
2020/12/14 06:49:44;;;;;;;113.97;29.43;;;4.90;99.90;;;;;;4643731;29;181679;-74
2020/12/14 06:52:10;;;;;;;81.87;25.63;;;4.90;99.90;;;;;;4640531;29;183095;-76
2020/12/14 06:54:45;;;;;;;107.63;29.13;;;4.90;99.90;;;;;;4642210;29;178093;-75
2020/12/14 06:57:14;;;;;;;173.30;33.60;;;4.90;99.90;;;;;;4645934;29;176936;-76
2020/12/14 06:59:53;;;;;;;186.27;33.27;;;4.90;99.90;;;;;;4644152;29;179245;-78
2020/12/14 07:02:33;;;;;;;69.73;24.10;;;4.90;99.90;;;;;;4644134;29;178707;-75
2020/12/14 07:04:59;;;;;;;142.60;31.33;;;4.90;99.90;;;;;;4645012;29;182103;-75
2020/12/14 07:07:26;;;;;;;82.93;29.63;;;4.90;99.90;;;;;;4644965;29;178152;-72
2020/12/14 07:10:11;;;;;;;100.63;32.87;;;4.90;99.90;;;;;;4645873;29;178898;-75
2020/12/14 07:12:46;;;;;;;63.20;26.30;;;4.90;99.90;;;;;;4645296;29;179267;-75
2020/12/14 07:15:28;;;;;;;114.47;29.17;;;5.00;99.90;;;;;;4646905;29;178593;-74
2020/12/14 07:18:09;;;;;;;116.17;62.93;;;5.00;99.90;;;;;;4649135;29;178544;-74
2020/12/14 07:20:45;;;;;;;82.50;27.97;;;5.00;99.90;;;;;;4666470;29;179498;-74
2020/12/14 07:23:14;;;;;;;73.97;25.20;;;4.80;99.90;;;;;;4649166;29;179456;-74
2020/12/14 07:25:57;;;;;;;88.50;28.60;;;4.90;99.90;;;;;;4660119;29;178097;-75
2020/12/14 07:28:38;;;;;;;56.87;24.33;;;4.90;99.90;;;;;;4649220;29;178020;-75
2020/12/14 07:31:10;;;;;;;55.70;24.47;;;5.40;99.90;;;;;;4646584;29;182656;-75
2020/12/14 07:33:38;;;;;;;57.93;24.33;;;5.50;99.90;;;;;;4644564;29;182579;-75
2020/12/14 07:36:07;;;;;;;61.07;24.13;;;5.00;99.90;;;;;;4650538;29;177999;-75
2020/12/14 07:38:42;;;;;;;56.13;22.27;;;4.60;99.90;;;;;;4653200;29;178002;-74
2020/12/14 07:41:08;;;;;;;52.90;23.93;;;4.80;99.90;;;;;;4648043;29;179764;-75
2020/12/14 07:43:54;;;;;;;64.40;24.53;;;4.80;99.90;;;;;;4647609;29;178723;-75
2020/12/14 07:46:27;;;;;;;62.33;23.23;;;4.80;99.90;;;;;;4649172;29;178397;-75
2020/12/14 07:49:03;;;;;;;66.20;23.70;;;5.10;99.90;;;;;;4647742;29;177331;-74
2020/12/14 07:51:31;;;;;;;56.47;22.00;;;5.10;99.90;;;;;;4647418;29;179415;-75
2020/12/14 07:54:08;;;;;;;55.60;22.23;;;4.90;99.90;;;;;;4647759;29;179133;-74
2020/12/14 07:56:41;;;;;;;49.63;20.43;;;5.20;99.90;;;;;;4646876;29;181323;-74
2020/12/14 07:59:27;;;;;;;56.97;22.33;;;4.80;99.90;;;;;;4648806;29;178718;-73
2020/12/14 08:01:54;;;;;;;71.87;23.73;;;5.30;99.90;;;;;;4647092;29;178990;-75
2020/12/14 08:04:34;;;;;;;67.53;24.23;;;4.90;99.90;;;;;;4648628;29;178174;-71
2020/12/14 08:07:01;;;;;;;50.43;21.57;;;5.00;99.90;;;;;;4647872;29;179100;-72
2020/12/14 08:09:39;;;;;;;60.63;22.33;;;4.80;99.90;;;;;;4648688;29;178046;-74
2020/12/14 08:12:06;;;;;;;57.10;21.37;;;5.30;99.90;;;;;;4645890;29;181907;-75
2020/12/14 08:14:33;;;;;;;53.80;21.43;;;5.60;99.90;;;;;;4648443;29;178088;-74
2020/12/14 08:17:00;;;;;;;58.93;22.90;;;4.40;99.90;;;;;;4648520;29;178738;-73
2020/12/14 08:19:26;;;;;;;48.93;21.10;;;5.20;99.90;;;;;;4648231;29;178678;-73
2020/12/14 08:22:06;;;;;;;59.07;22.03;;;4.90;99.90;;;;;;4645354;29;183275;-74
2020/12/14 08:24:33;;;;;;;56.20;21.93;;;5.20;99.90;;;;;;4648543;29;181669;-75
2020/12/14 08:27:05;;;;;;;47.70;20.80;;;5.10;99.90;;;;;;4646609;29;178226;-72
2020/12/14 08:29:32;;;;;;;46.60;20.63;;;5.20;99.90;;;;;;4648712;29;177935;-73
2020/12/14 08:32:01;;;;;;;40.40;18.63;;;5.20;99.90;;;;;;4647234;29;179233;-72
2020/12/14 08:34:33;;;;;;;40.93;19.80;;;4.90;99.90;;;;;;4648186;29;178984;-73
2020/12/14 08:36:59;;;;;;;47.53;20.97;;;4.90;99.90;;;;;;4648094;29;179304;-72
2020/12/14 08:39:26;;;;;;;45.27;20.40;;;5.10;99.90;;;;;;4649410;29;177065;-77
2020/12/14 08:42:10;;;;;;;41.70;19.17;;;5.00;99.90;;;;;;4646628;29;180101;-73
2020/12/14 08:44:40;;;;;;;34.43;18.07;;;5.00;99.90;;;;;;4646969;29;178908;-77
2020/12/14 08:47:17;;;;;;;41.80;18.87;;;5.20;99.90;;;;;;4645485;29;181348;-72
2020/12/14 08:49:44;;;;;;;35.17;18.77;;;5.00;99.90;;;;;;4646632;29;178978;-77
2020/12/14 08:52:21;;;;;;;34.73;18.63;;;5.10;99.90;;;;;;4659553;29;181519;-73
2020/12/14 08:54:55;;;;;;;46.47;19.43;;;5.20;99.90;;;;;;4647219;29;178925;-77
2020/12/14 08:57:22;;;;;;;43.00;18.63;;;5.20;99.90;;;;;;4647443;29;179172;-74
2020/12/14 09:00:08;;;;;;;31.47;17.37;;;5.00;99.90;;;;;;4647675;29;178520;-75
2020/12/14 09:02:34;;;;;;;30.13;16.77;;;5.30;99.90;;;;;;4641177;29;180594;-77
2020/12/14 09:05:16;;;;;;;34.63;17.60;;;5.40;99.90;;;;;;4648052;29;179100;-75
2020/12/14 09:07:42;;;;;;;28.40;16.63;;;5.00;99.90;;;;;;4646029;29;177965;-74
2020/12/14 09:10:28;;;;;;;30.27;17.23;;;5.10;99.90;;;;;;4646831;29;178738;-78
2020/12/14 09:13:05;;;;;;;28.60;16.47;;;5.20;99.90;;;;;;4645457;29;182659;-77
2020/12/14 09:15:35;;;;;;;36.20;16.27;;;5.20;99.90;;;;;;4649097;29;181719;-78
2020/12/14 09:18:05;;;;;;;34.80;16.60;;;5.00;99.90;;;;;;4649202;29;178647;-76
2020/12/14 09:20:33;;;;;;;27.63;16.33;;;5.30;99.90;;;;;;4639108;29;178541;-77
2020/12/14 09:22:59;;;;;;;25.53;15.93;;;5.30;99.90;;;;;;4648872;29;179314;-78
2020/12/14 09:25:26;;;;;;;26.43;16.27;;;5.30;99.90;;;;;;4650087;29;178984;-78
2020/12/14 09:27:52;;;;;;;24.17;15.17;;;5.40;99.90;;;;;;4649510;29;178822;-77
2020/12/14 09:30:18;;;;;;;25.23;15.97;;;5.40;99.90;;;;;;4650749;29;176533;-77
2020/12/14 09:32:44;;;;;;;24.07;15.23;;;5.50;99.90;;;;;;4649434;29;180725;-78
2020/12/14 09:35:13;;;;;;;21.03;14.50;;;5.40;99.90;;;;;;4649836;29;178278;-79
2020/12/14 09:37:39;;;;;;;19.73;14.30;;;5.30;99.90;;;;;;4647856;29;181231;-78
2020/12/14 09:40:05;;;;;;;24.30;14.20;;;5.40;99.90;;;;;;4648647;29;178051;-78
2020/12/14 09:42:32;;;;;;;21.87;15.00;;;5.50;99.90;;;;;;4649340;29;178928;-77
2020/12/14 09:44:59;;;;;;;21.23;15.77;;;;;;;;;;4649083;29;177953;-78
2020/12/14 09:47:25;;;;;;;22.13;14.33;;;5.60;99.90;;;;;;4650300;29;178540;-78
2020/12/14 09:49:52;;;;;;;18.57;14.30;;;5.50;99.90;;;;;;4649514;29;178022;-77
2020/12/14 09:52:19;;;;;;;19.77;14.40;;;5.40;99.90;;;;;;4648304;29;178836;-78
2020/12/14 09:54:46;;;;;;;20.77;14.80;;;;;;;;;;4649827;29;178289;-75
2020/12/14 09:57:13;;;;;;;19.10;13.70;;;;;;;;;;4649763;29;177962;-76
2020/12/14 09:59:42;;;;;;;19.27;14.10;;;;;;;;;;4650031;29;177983;-76
2020/12/14 10:02:09;;;;;;;15.83;13.07;;;;;;;;;;4645894;29;182537;-76
2020/12/14 10:04:35;;;;;;;19.60;13.43;;;;;;;;;;4649616;29;181115;-76
2020/12/14 10:07:02;;;;;;;37.50;13.60;;;;;;;;;;4649083;29;178677;-76
2020/12/14 10:09:29;;;;;;;23.97;13.80;;;;;;;;;;4648114;29;178158;-73
2020/12/14 10:11:56;;;;;;;16.20;12.90;;;5.90;99.90;;;;;;4649291;29;179352;-72
2020/12/14 10:14:22;;;;;;;17.70;13.80;;;5.90;99.90;;;;;;4649165;29;179740;-76
2020/12/14 10:16:50;;;;;;;19.57;13.43;;;5.90;99.90;;;;;;4649183;29;178436;-75
2020/12/14 10:19:18;;;;;;;19.83;13.03;;;5.90;99.90;;;;;;4649987;29;177024;-75
2020/12/14 10:21:45;;;;;;;17.17;12.57;;;5.90;99.90;;;;;;4648243;29;179212;-76
2020/12/14 10:24:11;;;;;;;18.27;13.87;;;5.90;99.90;;;;;;4648845;29;178649;-75
2020/12/14 10:26:37;;;;;;;20.43;13.73;;;5.90;99.90;;;;;;4646886;29;181672;-74
2020/12/14 10:29:04;;;;;;;18.47;13.37;;;5.90;99.90;;;;;;4651325;29;178177;-75
2020/12/14 10:31:30;;;;;;;19.00;13.53;;;6.00;99.90;;;;;;4645906;29;178161;-77
2020/12/14 10:33:59;;;;;;;15.77;12.87;;;5.90;99.90;;;;;;4646126;29;179301;-75
2020/12/14 10:36:25;;;;;;;15.67;13.03;;;5.90;99.90;;;;;;4646853;29;178562;-77
2020/12/14 10:38:53;;;;;;;16.33;12.90;;;6.00;99.90;;;;;;4646227;29;178474;-77
2020/12/14 10:41:19;;;;;;;16.30;12.03;;;6.00;99.90;;;;;;4646068;29;177974;-77
2020/12/14 10:43:45;;;;;;;17.40;12.93;;;6.00;99.90;;;;;;4646826;29;178247;-74
2020/12/14 10:46:12;;;;;;;17.03;12.07;;;;;;;;;;4646552;29;179058;-74
2020/12/14 10:48:39;;;;;;;16.23;12.70;;;;;;;;;;4646890;29;178092;-76
2020/12/14 10:51:06;;;;;;;14.53;12.10;;;;;;;;;;4642779;29;183178;-76
2020/12/14 10:53:32;;;;;;;18.97;12.07;;;;;;;;;;4644184;29;181712;-75
2020/12/14 10:56:00;;;;;;;15.43;11.50;;;;;;;;;;4646740;29;178717;-76
2020/12/14 10:58:27;;;;;;;20.53;12.80;;;;;;;;;;4645876;29;178455;-77
2020/12/14 11:00:54;;;;;;;15.70;12.63;;;;;;;;;;4646310;29;178730;-78
2020/12/14 11:03:31;;;;;;;17.30;12.03;;;;;;;;;;4644676;29;179420;-77
2020/12/14 11:05:58;;;;;;;17.03;11.67;;;;;;;;;;4644510;29;178921;-77
2020/12/14 11:08:28;;;;;;;16.00;11.83;;;;;;;;;;4654421;29;176842;-75
2020/12/14 11:10:55;;;;;;;13.67;11.23;;;;;;;;;;4665379;29;179466;-74
2020/12/14 11:13:21;;;;;;;14.30;11.00;;;;;;;;;;4648148;29;179301;-75
2020/12/14 11:15:48;;;;;;;17.37;11.73;;;;;;;;;;4647080;29;181313;-77
2020/12/14 11:18:16;;;;;;;16.27;10.33;;;;;;;;;;4648626;29;178120;-76
2020/12/14 11:20:42;;;;;;;16.60;11.30;;;;;;;;;;4648731;29;179641;-77
2020/12/14 11:23:09;;;;;;;14.20;10.93;;;;;;;;;;4648134;29;178371;-76
2020/12/14 11:25:36;;;;;;;18.20;10.87;;;;;;;;;;4648461;29;178020;-77
2020/12/14 11:28:03;;;;;;;16.37;10.30;;;;;;;;;;4648089;29;177987;-77
2020/12/14 11:30:30;;;;;;;12.33;10.47;;;;;;;;;;4648216;29;178904;-76
2020/12/14 11:32:56;;;;;;;12.77;10.20;;;;;;;;;;4648833;29;178984;-79
2020/12/14 11:35:23;;;;;;;12.43;9.40;;;;;;;;;;4648957;29;177941;-76
2020/12/14 11:37:50;;;;;;;13.07;10.10;;;;;;;;;;4649506;29;179089;-77
2020/12/14 11:40:16;;;;;;;13.63;9.90;;;;;;;;;;4659287;29;183256;-77
2020/12/14 11:42:43;;;;;;;15.13;10.30;;;;;;;;;;4648480;29;181653;-78
2020/12/14 11:45:10;;;;;;;13.63;9.50;;;;;;;;;;4648443;29;180022;-79
2020/12/14 11:47:38;;;;;;;12.33;9.83;;;;;;;;;;4649790;29;178726;-76
2020/12/14 11:50:06;;;;;;;11.87;9.23;;;;;;;;;;4649046;29;178631;-77
2020/12/14 11:52:32;;;;;;;12.43;9.37;;;;;;;;;;4653055;29;179095;-78
2020/12/14 11:55:00;;;;;;;12.07;9.40;;;;;;;;;;4680812;29;178073;-77
2020/12/14 11:57:27;;;;;;;12.40;9.33;;;;;;;;;;4656690;29;176569;-77
2020/12/14 11:59:54;;;;;;;13.30;9.27;;;;;;;;;;4649501;29;179191;-78
2020/12/14 12:02:20;;;;;;;12.90;9.87;;;;;;;;;;4649905;29;178226;-78
2020/12/14 12:04:48;;;;;;;12.70;9.73;;;;;;;;;;4651235;29;181260;-77
2020/12/14 12:07:14;;;;;;;13.33;9.53;;;;;;;;;;4652801;29;178092;-77
2020/12/14 12:09:41;;;;;;;10.30;8.63;;;;;;;;;;4663690;29;179886;-78
2020/12/14 12:12:10;;;;;;;12.07;9.23;;;;;;;;;;4669778;29;178423;-79
2020/12/14 12:14:36;;;;;;;11.63;8.60;;;;;;;;;;4670218;29;178887;-77
2020/12/14 12:17:03;;;;;;;11.07;8.67;;;;;;;;;;4670354;29;178046;-77
2020/12/14 12:19:30;;;;;;;12.60;9.33;;;;;;;;;;4669593;29;179460;-77
2020/12/14 12:22:01;;;;;;;14.00;8.77;;;;;;;;;;4669740;29;179065;-78
2020/12/14 12:24:28;;;;;;;11.63;8.73;;;;;;;;;;4683590;29;177948;-78
2020/12/14 12:26:55;;;;;;;13.40;8.57;;;;;;;;;;4669662;29;178625;-78
2020/12/14 12:29:22;;;;;;;11.47;8.97;;;;;;;;;;4668026;29;183361;-77
2020/12/14 12:31:53;;;;;;;12.80;8.90;;;;;;;;;;4669052;29;180295;-77
2020/12/14 12:34:38;;;;;;;13.73;9.33;;;;;;;;;;4649255;29;177978;-77
2020/12/14 12:37:05;;;;;;;10.47;7.93;;;;;;;;;;4649475;29;178361;-77
2020/12/14 12:39:32;;;;;;;9.80;8.00;;;;;;;;;;4648267;29;178755;-77
2020/12/14 12:41:58;;;;;;;10.03;7.97;;;;;;;;;;4647851;29;178162;-79
2020/12/14 12:44:26;;;;;;;10.70;7.37;;;;;;;;;;4647929;29;179050;-78
2020/12/14 12:46:53;;;;;;;11.20;8.20;;;;;;;;;;4649486;29;176584;-76
2020/12/14 12:49:21;;;;;;;8.53;7.43;;;;;;;;;;4648653;29;179307;-78
2020/12/14 12:51:48;;;;;;;10.10;7.17;;;;;;;;;;4648789;29;179165;-78
2020/12/14 12:54:15;;;;;;;9.67;7.67;;;;;;;;;;4646463;29;181829;-78
2020/12/14 12:56:42;;;;;;;7.30;6.50;;;;;;;;;;4649171;29;178991;-77
2020/12/14 12:59:09;;;;;;;11.73;7.63;;;;;;;;;;4647700;29;182863;-78
2020/12/14 13:01:36;;;;;;;9.70;7.50;;;;;;;;;;4647919;29;179185;-78
2020/12/14 13:04:03;;;;;;;10.63;6.93;;;;;;;;;;4649463;29;178395;-77
2020/12/14 13:06:31;;;;;;;12.23;7.63;;;;;;;;;;4648690;29;178353;-78
2020/12/14 13:08:58;;;;;;;11.13;9.03;;;;;;;;;;4648303;29;179557;-77
2020/12/14 13:11:27;;;;;;;9.43;8.03;;;;;;;;;;4648041;29;179039;-79
2020/12/14 13:13:55;;;;;;;9.87;7.77;;;;;;;;;;4648633;29;178522;-76
2020/12/14 13:16:22;;;;;;;9.30;7.67;;;;;;;;;;4648268;29;178647;-77
2020/12/14 13:18:49;;;;;;;9.80;8.43;;;;;;;;;;4646586;29;183167;-78
2020/12/14 13:21:16;;;;;;;8.53;7.10;;;;;;;;;;4647904;29;181391;-78
2020/12/14 13:23:43;;;;;;;8.90;7.47;;;;;;;;;;4647942;29;178634;-76
2020/12/14 13:26:09;;;;;;;9.70;7.67;;;;;;;;;;4648801;29;179844;-78
2020/12/14 13:28:36;;;;;;;9.60;7.83;;;;;;;;;;4646176;29;182448;-78
2020/12/14 13:31:03;;;;;;;9.90;8.13;;;;;;;;;;4648276;29;178075;-77
2020/12/14 13:33:29;;;;;;;13.53;9.43;;;;;;;;;;4647620;29;178433;-78
2020/12/14 13:35:56;;;;;;;11.97;10.50;;;;;;;;;;4648605;29;177486;-77
2020/12/14 13:38:23;;;;;;;14.27;10.97;;;;;;;;;;4645788;29;179564;-78
2020/12/14 13:40:49;;;;;;;11.20;8.73;;;;;;;;;;4645663;29;178741;-79
2020/12/14 13:43:16;;;;;;;10.60;7.80;;;;;;;;;;4646672;29;182582;-77
2020/12/14 13:45:43;;;;;;;11.53;8.97;;;;;;;;;;4650244;29;178582;-77
2020/12/14 13:48:09;;;;;;;11.30;8.27;;;;;;;;;;4650477;29;178822;-78
2020/12/14 13:50:36;;;;;;;28.83;8.43;;;;;;;;;;4650503;29;178833;-78
2020/12/14 13:53:03;;;;;;;20.63;9.27;;;;;;;;;;4650222;29;178486;-77
2020/12/14 13:55:31;;;;;;;19.00;9.43;;;;;;;;;;4649230;29;178008;-77
2020/12/14 13:57:58;;;;;;;10.07;8.40;;;;;;;;;;4646363;29;178611;-76
2020/12/14 14:00:25;;;;;;;13.50;8.37;;;;;;;;;;4649053;29;179925;-78
2020/12/14 14:02:52;;;;;;;12.47;8.60;;;;;;;;;;4648320;29;178069;-70
2020/12/14 14:05:21;;;;;;;13.30;7.90;;;;;;;;;;4648112;29;179237;-75
2020/12/14 14:07:48;;;;;;;10.63;8.30;;;;;;;;;;4644293;29;182548;-77
2020/12/14 14:10:15;;;;;;;13.17;8.13;;;;;;;;;;4648347;29;181684;-70
2020/12/14 14:12:41;;;;;;;9.93;7.53;;;;;;;;;;4649001;29;178615;-68
2020/12/14 14:15:08;;;;;;;9.17;7.80;;;;;;;;;;4648666;29;180160;-67
2020/12/14 14:17:35;;;;;;;11.27;7.93;;;;;;;;;;4648251;29;178695;-67
2020/12/14 14:20:05;;;;;;;8.97;7.27;;;;;;;;;;4648291;29;178841;-68
2020/12/14 14:22:32;;;;;;;9.87;7.93;;;;;;;;;;4645895;29;178780;-68
2020/12/14 14:24:59;;;;;;;12.40;8.43;;;;;;;;;;4650230;29;176617;-69
2020/12/14 14:27:26;;;;;;;12.07;8.03;;;;;;;;;;4646085;29;179359;-68
2020/12/14 14:29:53;;;;;;;10.90;8.50;;;;;;;;;;4646603;29;178694;-67
2020/12/14 14:32:19;;;;;;;9.90;8.03;;;;;;;;;;4648811;29;181219;-68
2020/12/14 14:34:50;;;;;;;14.27;8.17;;;;;;;;;;4649754;29;179706;-66
2020/12/14 14:37:21;;;;;;;11.00;8.30;;;;;;;;;;4649249;29;179522;-66
2020/12/14 14:39:48;;;;;;;10.63;8.17;;;;;;;;;;4648652;29;178372;-66
2020/12/14 14:42:19;;;;;;;10.10;7.83;;;;;;;;;;4647877;29;179227;-66
2020/12/14 14:44:46;;;;;;;10.83;7.93;;;;;;;;;;4650119;29;178196;-66
2020/12/14 14:47:12;;;;;;;10.03;8.10;;;;;;;;;;4648605;29;179802;-65
2020/12/14 14:49:39;;;;;;;9.47;7.37;;;;;;;;;;4648793;29;178382;-65
2020/12/14 14:52:06;;;;;;;12.50;9.67;;;;;;;;;;4643278;29;179789;-67
2020/12/14 14:54:33;;;;;;;9.60;8.27;;;;;;;;;;4648468;29;179622;-67
2020/12/14 14:56:59;;;;;;;11.77;9.10;;;;;;;;;;4645364;29;183870;-67
2020/12/14 14:59:27;;;;;;;12.97;8.57;;;;;;;;;;4646376;29;181639;-67
2020/12/14 15:01:54;;;;;;;11.07;8.97;;;;;;;;;;4648230;29;180162;-67
2020/12/14 15:04:24;;;;;;;16.60;8.30;;;;;;;;;;4647621;29;179932;-67
2020/12/14 15:06:51;;;;;;;11.53;8.00;;;;;;;;;;4645670;29;178733;-68
2020/12/14 15:09:18;;;;;;;9.63;7.50;;;;;;;;;;4648424;29;180455;-67
2020/12/14 15:11:45;;;;;;;10.93;7.97;;;;;;;;;;4648062;29;178868;-67
2020/12/14 15:14:12;;;;;;;9.60;8.20;;;;;;;;;;4645734;29;177177;-68
2020/12/14 15:16:40;;;;;;;31.93;9.67;;;;;;;;;;4641488;29;181996;-67
2020/12/14 15:19:08;;;;;;;14.07;8.40;;;;;;;;;;4652725;29;178432;-67
2020/12/14 15:21:34;;;;;;;22.50;8.50;;;;;;;;;;4644243;29;182299;-69
2020/12/14 15:24:01;;;;;;;13.73;8.17;;;;;;;;;;4645620;29;179293;-67
2020/12/14 15:26:28;;;;;;;12.23;8.10;;;;;;;;;;4644623;29;179851;-66
2020/12/14 15:28:55;;;;;;;9.53;8.00;;;;;;;;;;4645259;29;178510;-66
2020/12/14 15:31:21;;;;;;;11.53;8.27;;;;;;;;;;4645047;29;180200;-66
2020/12/14 15:33:48;;;;;;;13.53;8.17;;;;;;;;;;4643382;29;179021;-66
2020/12/14 15:36:18;;;;;;;20.10;8.67;;;;;;;;;;4646022;29;179777;-66
2020/12/14 15:38:45;;;;;;;16.60;8.57;;;;;;;;;;4647711;29;178915;-67
2020/12/14 15:41:13;;;;;;;15.03;8.43;;;;;;;;;;4646980;29;178828;-66
2020/12/14 15:43:41;;;;;;;25.43;8.60;;;;;;;;;;4648559;29;178542;-67
2020/12/14 15:46:08;;;;;;;14.83;8.27;;;;;;;;;;4646119;29;183603;-67
2020/12/14 15:48:35;;;;;;;13.53;8.40;;;;;;;;;;4647010;29;181466;-66
2020/12/14 15:51:02;;;;;;;10.00;8.00;;;;;;;;;;4649452;29;180622;-66
2020/12/14 15:53:29;;;;;;;18.43;8.73;;;;;;;;;;4646172;29;178635;-66
2020/12/14 15:55:56;;;;;;;15.73;9.10;;;;;;;;;;4646449;29;179000;-66
2020/12/14 15:58:23;;;;;;;12.63;7.53;;;;;;;;;;4655978;29;179134;-68
2020/12/14 16:00:50;;;;;;;10.23;8.13;;;;;;;;;;4651522;29;178493;-66
2020/12/14 16:03:17;;;;;;;9.20;8.03;;;;;;;;;;4649443;29;177011;-66
2020/12/14 16:05:44;;;;;;;11.27;7.87;;;;;;;;;;4648927;29;179367;-67
2020/12/14 16:08:12;;;;;;;10.73;8.07;;;;;;;;;;4648823;29;178778;-66
2020/12/14 16:10:38;;;;;;;12.40;7.73;;;;;;;;;;4648646;29;181967;-66
2020/12/14 16:13:05;;;;;;;15.63;8.20;;;;;;;;;;4648538;29;178622;-67
2020/12/14 16:15:33;;;;;;;12.33;7.70;;;;;;;;;;4649311;29;180503;-66
2020/12/14 16:17:59;;;;;;;18.17;8.00;;;;;;;;;;4649368;29;178256;-66
2020/12/14 16:20:26;;;;;;;14.23;8.33;;;;;;;;;;4649850;29;178942;-67
2020/12/14 16:22:54;;;;;;;16.07;7.83;;;;;;;;;;4647987;29;177903;-66
2020/12/14 16:25:20;;;;;;;23.87;8.63;;;;;;;;;;4648823;29;178457;-66
2020/12/14 16:27:47;;;;;;;11.90;7.50;;;;;;;;;;4649176;29;179829;-66
2020/12/14 16:30:14;;;;;;;14.57;8.43;;;;;;;;;;4642949;29;178042;-66
2020/12/14 16:32:41;;;;;;;12.83;8.13;;;;;;;;;;4648584;29;178080;-66
2020/12/14 16:35:10;;;;;;;31.20;8.97;;;;;;;;;;4645210;29;183601;-67
2020/12/14 16:37:38;;;;;;;11.77;8.00;;;;;;;;;;4647445;29;182349;-66
2020/12/14 16:40:05;;;;;;;10.10;7.67;;;;;;;;;;4657732;29;178052;-67
2020/12/14 16:42:35;;;;;;;9.27;7.50;;;;;;;;;;4654000;29;178824;-66
2020/12/14 16:45:03;;;;;;;10.70;8.07;;;;;;;;;;4657158;29;179290;-67
2020/12/14 16:47:33;;;;;;;20.97;8.30;;;;;;;;;;4651650;29;178718;-67
2020/12/14 16:50:01;;;;;;;13.00;8.90;;;;;;;;;;4648219;29;178797;-66
2020/12/14 16:52:27;;;;;;;11.53;7.70;;;;;;;;;;4648790;29;177763;-66
2020/12/14 16:54:54;;;;;;;11.50;8.27;;;;;;;;;;4654333;29;179693;-67
2020/12/14 16:57:21;;;;;;;8.80;7.43;;;;;;;;;;4653584;29;178510;-66
2020/12/14 16:59:47;;;;;;;11.47;8.17;;;;;;;;;;4649271;29;181831;-66
2020/12/14 17:02:16;;;;;;;11.60;7.40;;;;;;;;;;4646969;29;178508;-66
2020/12/14 17:04:58;;;;;;;8.90;7.27;;;;;;;;;;4646801;29;179933;-67
2020/12/14 17:07:32;;;;;;;26.97;9.30;;;;;;;;;;4655737;29;179117;-67
2020/12/14 17:10:11;;;;;;;46.93;9.53;;;;;;;;;;4651233;29;178618;-66
2020/12/14 17:12:38;;;;;;;20.70;8.83;;;;;;;;;;4657921;29;178633;-66
2020/12/14 17:15:05;;;;;;;13.87;8.30;;;;;;;;;;4649845;29;179390;-67
2020/12/14 17:17:32;;;;;;;9.77;7.77;;;;;;;;;;4650281;29;179177;-66
2020/12/14 17:20:00;;;;;;;12.67;8.10;;;;;;;;;;4658285;29;178324;-66
2020/12/14 17:22:31;;;;;;;19.77;8.80;;;;;;;;;;4641275;29;178174;-66
2020/12/14 17:24:58;;;;;;;28.00;9.70;;;;;;;;;;4645368;29;186282;-66
2020/12/14 17:27:24;;;;;;;19.63;8.70;;;;;;;;;;4646219;29;181050;-66
2020/12/14 17:29:51;;;;;;;14.80;8.40;;;;;;;;;;4638397;29;179267;-67
2020/12/14 17:32:18;;;;;;;19.23;9.10;;;;;;;;;;4649651;29;178287;-66
2020/12/14 17:34:46;;;;;;;10.03;8.10;;;;;;;;;;4644318;29;179286;-66
2020/12/14 17:37:14;;;;;;;8.17;7.10;;;;;;;;;;4641519;29;179667;-66
2020/12/14 17:39:41;;;;;;;17.77;9.53;;;;;;;;;;4646077;29;178956;-66
2020/12/14 17:42:08;;;;;;;9.33;7.83;;;;;;;;;;4644921;29;177079;-66
2020/12/14 17:44:36;;;;;;;14.60;8.40;;;;;;;;;;4647864;29;178160;-67
2020/12/14 17:47:02;;;;;;;13.27;7.23;;;;;;;;;;4643318;29;178819;-67
2020/12/14 17:49:29;;;;;;;15.20;8.07;;;;;;;;;;4641445;29;182488;-67
2020/12/14 17:52:00;;;;;;;13.93;7.60;;;;;;;;;;4643713;29;179363;-66
2020/12/14 17:54:28;;;;;;;12.40;7.57;;;;;;;;;;4640202;29;179707;-66
2020/12/14 17:56:55;;;;;;;20.33;8.63;;;;;;;;;;4647601;29;179519;-66
2020/12/14 17:59:32;;;;;;;8.87;7.53;;;;;;;;;;4642683;29;179576;-66
2020/12/14 18:01:59;;;;;;;8.70;6.93;;;;;;;;;;4645905;29;178429;-66
2020/12/14 18:04:26;;;;;;;7.97;7.07;;;;;;;;;;4646172;29;180067;-67
2020/12/14 18:06:54;;;;;;;9.20;6.97;;;;;;;;;;4644544;29;178350;-67
2020/12/14 18:09:21;;;;;;;10.10;7.47;;;;;;;;;;4643694;29;177874;-67
2020/12/14 18:11:47;;;;;;;19.67;7.80;;;;;;;;;;4643426;29;178637;-67
2020/12/14 18:14:14;;;;;;;10.20;7.20;;;;;;;;;;4643080;29;184445;-67
2020/12/14 18:16:41;;;;;;;49.17;10.90;;;;;;;;;;4640515;29;183662;-66
2020/12/14 18:19:08;;;;;;;10.03;7.30;;;;;;;;;;4642374;29;178722;-67
2020/12/14 18:21:36;;;;;;;12.60;7.30;;;;;;;;;;4641305;29;180996;-67
2020/12/14 18:24:03;;;;;;;14.90;7.93;;;;;;;;;;4646465;29;181836;-66
2020/12/14 18:26:34;;;;;;;24.60;7.67;;;;;;;;;;4646459;29;179185;-66
2020/12/14 18:29:01;;;;;;;12.50;7.40;;;;;;;;;;4646234;29;178924;-66
2020/12/14 18:31:28;;;;;;;9.47;6.77;;;;;;;;;;4644647;29;177109;-66
2020/12/14 19:33:40;;;;;;;20.13;8.07;;;;;;;;;;4647742;29;179867;-67
2020/12/14 21:26:01;;;;;;;14.30;7.47;;;;;;;;;;4649563;29;182082;-66
2020/12/14 21:28:28;;;;;;;134.97;18.83;;;;;;;;;;4645645;29;178677;-66